Terminal Aerodrome Forecast
Issued by NWS

Home | Current Version | Previous Version | Text Only | Print | Product List | Glossary On
Versions: 1 2 3 4 5 6 7 8 9 10 11 12 13 14 15 16 17
000
FTUS46 KSGX 032321
TAFSNA
TAF
KSNA 032321Z 0400/0424 23008KT P6SM FEW015 SCT250
     FM040200 VRB04KT P6SM SCT015
     FM040600 VRB04KT P6SM OVC012
     FM041800 23009KT P6SM SCT015=

USA.gov is the U.S. government's official web portal to all federal, state and local government web resources and services.